createdAt,value
2022-12-11T00:03:22.674Z,0.70
2022-12-11T00:07:24.140Z,0.73
2022-12-11T00:11:27.472Z,0.61
2022-12-11T00:15:29.280Z,0.58
2022-12-11T00:19:30.836Z,0.56
2022-12-11T00:23:34.791Z,0.51
2022-12-11T00:27:36.565Z,0.47
2022-12-11T00:31:38.120Z,0.47
2022-12-11T00:35:46.935Z,0.41
2022-12-11T00:39:50.626Z,0.39
2022-12-11T00:43:52.268Z,0.38
2022-12-11T00:47:54.774Z,0.33
2022-12-11T00:51:56.457Z,0.31
2022-12-11T00:55:57.932Z,0.27
2022-12-11T00:59:59.467Z,0.19
2022-12-11T01:04:00.884Z,0.21
2022-12-11T01:08:03.091Z,0.24
2022-12-11T01:12:04.802Z,0.25
2022-12-11T01:16:12.345Z,0.16
2022-12-11T01:20:13.867Z,0.14
2022-12-11T01:24:15.434Z,0.08
2022-12-11T01:28:16.901Z,0.08
2022-12-11T01:32:18.465Z,0.08
2022-12-11T01:36:22.208Z,0.08
2022-12-11T01:40:23.861Z,0.07
2022-12-11T01:44:26.475Z,0.10
2022-12-11T01:48:31.488Z,0.13
2022-12-11T01:52:33.536Z,0.16
2022-12-11T01:56:37.905Z,0.13
2022-12-11T02:00:39.405Z,0.10
2022-12-11T02:04:44.131Z,0.07
2022-12-11T02:08:45.587Z,0.03
2022-12-11T02:12:58.575Z,-0.01
2022-12-11T02:17:21.748Z,0.02
2022-12-11T02:21:33.555Z,0.00
2022-12-11T02:25:53.856Z,0.02
2022-12-11T02:29:55.447Z,0.06
2022-12-11T02:34:12.118Z,0.08
2022-12-11T02:38:27.028Z,-0.02
2022-12-11T02:42:31.647Z,-0.04
2022-12-11T02:46:36.687Z,-0.08
2022-12-11T02:50:44.284Z,-0.04
2022-12-11T02:54:47.583Z,-0.06
2022-12-11T02:58:58.521Z,-0.13
2022-12-11T03:03:01.415Z,-0.11
2022-12-11T03:07:13.246Z,-0.13
2022-12-11T03:11:14.899Z,-0.09
2022-12-11T03:15:19.911Z,-0.14
2022-12-11T03:19:36.094Z,-0.16
2022-12-11T03:23:53.894Z,-0.14
2022-12-11T03:28:07.959Z,-0.14
2022-12-11T03:32:15.767Z,-0.16
2022-12-11T03:36:45.778Z,-0.19
2022-12-11T03:40:51.195Z,-0.17
2022-12-11T03:44:56.690Z,-0.22
2022-12-11T03:49:05.916Z,-0.30
2022-12-11T03:53:08.031Z,-0.24
2022-12-11T03:57:15.084Z,-0.26
2022-12-11T04:01:16.786Z,-0.29
2022-12-11T04:05:18.395Z,-0.27
2022-12-11T04:09:19.907Z,-0.29
2022-12-11T04:13:21.361Z,-0.31
2022-12-11T04:17:41.549Z,-0.35
2022-12-11T04:22:01.780Z,-0.37
2022-12-11T04:26:08.717Z,-0.31
2022-12-11T04:30:13.975Z,-0.31
2022-12-11T04:34:15.608Z,-0.30
2022-12-11T04:38:17.261Z,-0.33
2022-12-11T04:42:18.977Z,-0.35
2022-12-11T04:46:23.235Z,-0.35
2022-12-11T04:50:25.858Z,-0.32
2022-12-11T04:54:29.737Z,-0.33
2022-12-11T04:58:31.373Z,-0.36
2022-12-11T05:02:37.558Z,-0.28
2022-12-11T05:06:39.074Z,-0.27
2022-12-11T05:10:41.791Z,-0.28
2022-12-11T05:14:45.405Z,-0.32
2022-12-11T05:18:47.500Z,-0.43
2022-12-11T05:22:48.990Z,-0.39
2022-12-11T05:26:50.502Z,-0.46
2022-12-11T05:30:56.890Z,-0.45
2022-12-11T05:34:58.369Z,-0.46
2022-12-11T05:39:01.254Z,-0.52
2022-12-11T05:43:02.856Z,-0.65
2022-12-11T05:47:04.401Z,-0.69
2022-12-11T05:51:08.319Z,-0.68
2022-12-11T05:55:10.170Z,-0.68
2022-12-11T05:59:11.898Z,-0.59
2022-12-11T06:03:13.773Z,-0.51
2022-12-11T06:07:15.308Z,-0.52
2022-12-11T06:11:22.320Z,-0.59
2022-12-11T06:15:25.472Z,-0.60
2022-12-11T06:19:28.864Z,-0.60
2022-12-11T06:23:33.438Z,-0.72
2022-12-11T06:27:35.210Z,-0.81
2022-12-11T06:31:36.806Z,-0.93
2022-12-11T06:35:42.022Z,-1.06
2022-12-11T06:39:44.207Z,-1.05
2022-12-11T06:43:45.778Z,-1.02
2022-12-11T06:47:47.310Z,-1.10
2022-12-11T06:51:49.511Z,-1.12
2022-12-11T06:55:51.225Z,-1.14
2022-12-11T06:59:52.874Z,-1.18
2022-12-11T07:03:59.019Z,-1.18
2022-12-11T07:08:01.118Z,-1.18
2022-12-11T07:12:04.038Z,-1.20
2022-12-11T07:16:10.536Z,-1.22
2022-12-11T07:20:12.211Z,-1.18
2022-12-11T07:24:14.136Z,-1.14
2022-12-11T07:28:16.926Z,-1.13
2022-12-11T07:32:18.702Z,-1.06
2022-12-11T07:36:21.048Z,-1.14
2022-12-11T07:40:22.693Z,-1.22
2022-12-11T07:44:24.188Z,-1.30
2022-12-11T07:48:25.650Z,-1.25
2022-12-11T07:52:27.161Z,-1.23
2022-12-11T07:56:30.472Z,-1.22
2022-12-11T08:00:32.815Z,-1.24
2022-12-11T08:04:34.485Z,-1.19
2022-12-11T08:08:36.293Z,-1.15
2022-12-11T08:12:37.823Z,-1.19
2022-12-11T08:16:42.888Z,-1.21
2022-12-11T08:20:44.399Z,-1.21
2022-12-11T08:24:46.884Z,-1.18
2022-12-11T08:28:48.616Z,-1.14
2022-12-11T08:32:50.253Z,-1.08
2022-12-11T08:36:51.754Z,-1.02
2022-12-11T08:40:53.314Z,-0.30
2022-12-11T08:44:54.809Z,1.20
2022-12-11T08:48:57.743Z,2.69
2022-12-11T08:52:59.367Z,1.19
2022-12-11T08:57:00.925Z,0.47
2022-12-11T09:01:53.753Z,0.08
2022-12-11T09:05:55.488Z,-0.18
2022-12-11T09:09:57.043Z,-0.35
2022-12-11T09:14:05.168Z,-0.57
2022-12-11T09:18:09.176Z,-0.60
2022-12-11T09:22:11.299Z,-0.51
2022-12-11T09:26:16.077Z,-0.50
2022-12-11T09:30:17.606Z,-0.44
2022-12-11T09:34:22.701Z,-0.30
2022-12-11T09:38:30.195Z,-0.22
2022-12-11T09:43:09.786Z,-0.08
2022-12-11T09:47:21.061Z,-0.06
2022-12-11T09:51:28.484Z,-0.17
2022-12-11T09:55:43.124Z,-0.01
2022-12-11T10:00:31.943Z,-0.04
2022-12-11T10:05:18.910Z,-0.01
2022-12-11T10:09:33.415Z,-0.06
2022-12-11T10:14:06.711Z,0.05
2022-12-11T10:18:15.842Z,0.19
2022-12-11T10:22:22.901Z,0.41
2022-12-11T10:26:24.731Z,0.67
2022-12-11T10:30:34.589Z,0.99
2022-12-11T10:34:42.171Z,1.21
2022-12-11T10:38:46.765Z,1.49
2022-12-11T10:42:55.271Z,1.61
2022-12-11T10:47:12.669Z,1.77
2022-12-11T10:51:14.267Z,1.74
2022-12-11T10:55:22.677Z,1.45
2022-12-11T10:59:28.007Z,1.45
2022-12-11T11:03:29.949Z,1.14
2022-12-11T11:07:31.716Z,1.21
2022-12-11T11:11:38.220Z,1.00
2022-12-11T11:15:39.935Z,0.89
2022-12-11T11:19:41.729Z,1.04
2022-12-11T11:23:47.237Z,1.32
2022-12-11T11:27:55.738Z,1.20
2022-12-11T11:32:03.960Z,1.29
2022-12-11T11:36:07.842Z,1.15
2022-12-11T11:40:19.994Z,1.06
2022-12-11T11:45:13.848Z,0.93
2022-12-11T11:49:26.009Z,0.74
2022-12-11T11:59:31.140Z,0.78
2022-12-11T12:03:32.765Z,0.53
2022-12-11T12:13:55.598Z,0.23
2022-12-11T12:18:28.539Z,0.26
2022-12-11T12:22:45.640Z,0.23
2022-12-11T12:27:00.163Z,0.13
2022-12-11T12:31:31.113Z,0.14
2022-12-11T12:35:38.005Z,0.27
2022-12-11T12:39:54.644Z,0.22
2022-12-11T12:44:08.390Z,0.11
2022-12-11T12:48:10.226Z,0.16
2022-12-11T12:52:19.260Z,0.42
2022-12-11T12:56:22.322Z,0.62
2022-12-11T13:00:30.337Z,0.57
2022-12-11T13:09:09.183Z,0.54
2022-12-11T13:13:35.840Z,0.47
2022-12-11T13:17:38.848Z,0.51
2022-12-11T13:21:41.101Z,0.45
2022-12-11T13:25:51.478Z,0.24
2022-12-11T13:30:08.621Z,0.22
2022-12-11T13:34:21.157Z,0.25
2022-12-11T13:38:23.991Z,0.30
2022-12-11T13:42:33.783Z,0.30
2022-12-11T13:46:40.408Z,0.43
2022-12-11T13:50:43.824Z,0.46
2022-12-11T13:54:52.301Z,0.40
2022-12-11T13:58:54.018Z,0.40
2022-12-11T14:02:59.533Z,0.38
2022-12-11T14:07:02.055Z,0.32
2022-12-11T14:11:05.123Z,0.25
2022-12-11T14:15:07.801Z,0.14
2022-12-11T14:19:10.906Z,-0.01
2022-12-11T14:23:18.972Z,-0.20
2022-12-11T14:27:21.836Z,-0.31
2022-12-11T14:31:28.216Z,-0.48
2022-12-11T14:35:38.588Z,-0.56
2022-12-11T14:39:46.988Z,-0.56
2022-12-11T14:43:53.517Z,-0.58
2022-12-11T14:47:57.234Z,-0.57
2022-12-11T14:52:01.143Z,-0.61
2022-12-11T14:56:06.321Z,-0.65
2022-12-11T15:00:09.207Z,-0.57
2022-12-11T15:04:14.058Z,-0.62
2022-12-11T15:08:24.901Z,-0.66
2022-12-11T15:12:26.703Z,-0.59
2022-12-11T15:16:33.202Z,-0.53
2022-12-11T15:20:34.854Z,-0.57
2022-12-11T15:24:40.437Z,-0.57
2022-12-11T15:28:42.244Z,-0.61
2022-12-11T15:32:45.181Z,-0.77
2022-12-11T15:36:46.832Z,-0.75
2022-12-11T15:40:48.559Z,-0.71
2022-12-11T15:44:50.911Z,-0.72
2022-12-11T15:48:52.970Z,-0.77
2022-12-11T15:52:56.589Z,-0.75
2022-12-11T15:57:01.766Z,-0.80
2022-12-11T16:01:04.045Z,-0.90
2022-12-11T16:05:07.609Z,-0.88
2022-12-11T16:09:09.141Z,-0.98
2022-12-11T16:13:12.798Z,-0.94
2022-12-11T16:17:15.810Z,-1.00
2022-12-11T16:21:21.373Z,-1.02
2022-12-11T16:25:23.526Z,-1.01
2022-12-11T16:29:25.146Z,-0.99
2022-12-11T16:33:26.842Z,-0.95
2022-12-11T16:37:29.713Z,-0.94
2022-12-11T16:41:31.395Z,-0.92
2022-12-11T16:45:33.932Z,-0.93
2022-12-11T16:49:35.646Z,-0.98
2022-12-11T16:53:37.426Z,-1.00
2022-12-11T16:57:39.265Z,-1.09
2022-12-11T17:01:41.043Z,-1.08
2022-12-11T17:05:43.428Z,-1.06
2022-12-11T17:09:47.311Z,-1.16
2022-12-11T17:13:57.955Z,-1.09
2022-12-11T17:17:59.488Z,-1.03
2022-12-11T17:22:01.127Z,-1.02
2022-12-11T17:26:04.329Z,-1.02
2022-12-11T17:30:06.342Z,-1.05
2022-12-11T17:34:08.090Z,-0.99
2022-12-11T17:38:09.994Z,-0.94
2022-12-11T17:42:11.588Z,-1.08
2022-12-11T17:46:13.741Z,-1.05
2022-12-11T17:50:15.271Z,-1.10
2022-12-11T17:54:16.772Z,-1.14
2022-12-11T17:58:22.016Z,-1.09
2022-12-11T18:02:23.564Z,-1.07
2022-12-11T18:06:25.413Z,-1.06
2022-12-11T18:10:27.317Z,-1.13
2022-12-11T18:14:28.991Z,-1.04
2022-12-11T18:18:31.347Z,-1.05
2022-12-11T18:22:32.991Z,-1.05
2022-12-11T18:26:34.715Z,-1.07
2022-12-11T18:30:36.886Z,-0.29
2022-12-11T18:34:38.439Z,-0.50
2022-12-11T18:38:41.117Z,-0.63
2022-12-11T18:42:43.463Z,-0.73
2022-12-11T18:46:45.059Z,-0.75
2022-12-11T18:50:48.724Z,-0.80
2022-12-11T18:54:52.149Z,-0.97
2022-12-11T18:58:53.768Z,-0.99
2022-12-11T19:03:29.512Z,-1.10
2022-12-11T19:08:23.644Z,-1.28
2022-12-11T19:12:26.622Z,-1.32
2022-12-11T19:16:41.721Z,-1.36
2022-12-11T19:21:12.612Z,-1.28
2022-12-11T19:25:46.625Z,-1.26
2022-12-11T19:29:49.760Z,-1.17
2022-12-11T19:33:52.789Z,-1.20
2022-12-11T19:37:57.645Z,-1.20
2022-12-11T19:41:59.633Z,-1.19
2022-12-11T19:46:02.862Z,-1.15
2022-12-11T19:50:05.746Z,-1.00
2022-12-11T19:54:09.663Z,-0.96
2022-12-11T19:58:11.340Z,-1.01
2022-12-11T20:02:13.468Z,-1.08
2022-12-11T20:06:15.679Z,-1.30
2022-12-11T20:10:17.466Z,-1.37
2022-12-11T20:14:22.485Z,-1.53
2022-12-11T20:19:14.583Z,-1.54
2022-12-11T20:24:07.627Z,-1.57
2022-12-11T20:28:09.443Z,-1.61
2022-12-11T20:32:11.479Z,-1.63
2022-12-11T20:36:15.399Z,-1.76
2022-12-11T20:40:19.849Z,-1.75
2022-12-11T20:44:21.626Z,-1.73
2022-12-11T20:48:23.269Z,-1.67
2022-12-11T20:52:25.444Z,-1.63
2022-12-11T20:56:29.750Z,-1.53
2022-12-11T21:00:31.395Z,-1.50
2022-12-11T21:04:33.132Z,-1.44
2022-12-11T21:08:34.740Z,-1.53
2022-12-11T21:12:38.064Z,-1.55
2022-12-11T21:16:39.888Z,-1.54
2022-12-11T21:21:31.443Z,-1.36
2022-12-11T21:25:33.669Z,-1.33
2022-12-11T21:29:35.300Z,-1.41
2022-12-11T21:33:36.900Z,-1.43
2022-12-11T21:37:42.192Z,-1.41
2022-12-11T21:41:49.821Z,-1.52
2022-12-11T21:46:00.806Z,-1.54
2022-12-11T21:50:04.294Z,-1.58
2022-12-11T22:05:37.831Z,-1.69
2022-12-11T22:09:39.279Z,-1.76
2022-12-11T22:13:40.921Z,-1.74
2022-12-11T22:17:42.371Z,-1.77
2022-12-11T22:21:44.162Z,-1.75
2022-12-11T22:25:45.922Z,-1.73
2022-12-11T22:29:47.450Z,-1.73
2022-12-11T22:33:50.080Z,-1.78
2022-12-11T22:37:52.195Z,-1.79
2022-12-11T22:41:53.727Z,-1.73
2022-12-11T22:45:55.423Z,-1.64
2022-12-11T22:49:56.898Z,-1.55
2022-12-11T22:53:58.653Z,-1.51
2022-12-11T22:58:00.165Z,-1.55
2022-12-11T23:02:02.140Z,-1.60
2022-12-11T23:06:08.233Z,-1.73
2022-12-11T23:10:10.835Z,-1.78
2022-12-11T23:14:16.236Z,-1.73
2022-12-11T23:18:17.788Z,-1.66
2022-12-11T23:22:19.903Z,-1.66
2022-12-11T23:26:22.183Z,-1.69
2022-12-11T23:30:23.875Z,-1.66
2022-12-11T23:34:25.557Z,-1.73
2022-12-11T23:38:27.170Z,-1.76
2022-12-11T23:42:28.993Z,-1.78
2022-12-11T23:46:30.698Z,-1.82
2022-12-11T23:50:34.253Z,-1.85
2022-12-11T23:54:35.866Z,-1.83
2022-12-11T23:58:38.866Z,-1.84
